Time;durP1;ratioP1;P1;durP2;ratioP2;P2;SDS_P1;SDS_P2;PMS_P1;PMS_P2;Temp;Humidity;BMP_temperature;BMP_pressure;BME280_temperature;BME280_humidity;BME280_pressure;Samples;Min_cycle;Max_cycle;Signal;HPM_P1;HPM_P2
2021/11/12 00:12:44;;;;;;;29.00;17.33;;;7.90;99.90;;;;;;5009124;28;20594;-90
2021/11/12 00:14:55;;;;;;;28.20;17.27;;;7.90;99.90;;;;;;5009697;28;20053;-90
2021/11/12 00:17:30;;;;;;;32.63;19.10;;;7.80;99.90;;;;;;5042313;28;20045;-89
2021/11/12 00:19:57;;;;;;;32.42;19.17;;;7.90;99.90;;;;;;5029951;28;20033;-90
2021/11/12 00:22:23;;;;;;;33.40;19.00;;;7.90;99.90;;;;;;5029425;28;20021;-88
2021/11/12 00:24:51;;;;;;;33.00;19.48;;;7.90;99.90;;;;;;5074635;28;20067;-89
2021/11/12 00:27:17;;;;;;;35.58;19.88;;;7.90;99.90;;;;;;5086192;28;20032;-89
2021/11/12 00:30:15;;;;;;;34.45;19.52;;;7.80;99.90;;;;;;5080253;28;20055;-89
2021/11/12 00:35:02;;;;;;;30.42;18.80;;;7.80;99.90;;;;;;5065880;28;20082;-88
2021/11/12 00:40:22;;;;;;;30.75;19.25;;;7.80;99.90;;;;;;5065525;28;20033;-88
2021/11/12 00:45:27;;;;;;;29.77;18.73;;;7.80;99.90;;;;;;5066842;28;20040;-88
2021/11/12 00:47:59;;;;;;;32.13;19.88;;;7.70;99.90;;;;;;5065315;28;20319;-89
2021/11/12 00:50:53;;;;;;;27.77;18.35;;;7.80;99.90;;;;;;5065281;28;20025;-89
2021/11/12 00:55:45;;;;;;;30.77;18.67;;;7.70;99.90;;;;;;5045129;28;20052;-90
2021/11/12 00:58:15;;;;;;;28.65;16.80;;;7.70;99.90;;;;;;5029066;28;20018;-89
2021/11/12 01:00:44;;;;;;;30.08;16.88;;;7.70;99.90;;;;;;5045319;28;20033;-89
2021/11/12 01:03:11;;;;;;;31.80;18.35;;;7.70;99.90;;;;;;5028701;28;20052;-87
2021/11/12 01:05:36;;;;;;;34.75;18.30;;;7.70;99.90;;;;;;5039510;28;20041;-89
2021/11/12 01:08:02;;;;;;;32.75;18.00;;;7.70;99.90;;;;;;5048628;28;20029;-89
2021/11/12 01:10:29;;;;;;;29.00;16.85;;;7.70;99.90;;;;;;5048378;28;20101;-89
2021/11/12 01:12:57;;;;;;;29.27;18.38;;;7.70;99.90;;;;;;5048277;28;20059;-89
2021/11/12 01:15:24;;;;;;;29.00;18.05;;;7.70;99.90;;;;;;5033383;28;20037;-89
2021/11/12 01:17:51;;;;;;;39.55;19.75;;;7.70;99.90;;;;;;5032661;28;20044;-90
2021/11/12 01:20:18;;;;;;;34.22;17.35;;;7.70;99.90;;;;;;5048048;28;20033;-89
2021/11/12 01:22:45;;;;;;;33.85;18.08;;;7.60;99.90;;;;;;5048380;28;20033;-89
2021/11/12 01:25:13;;;;;;;29.73;17.52;;;7.60;99.90;;;;;;5048217;28;20028;-89
2021/11/12 01:27:40;;;;;;;29.73;17.70;;;7.60;99.90;;;;;;5048260;28;20033;-89
2021/11/12 01:30:07;;;;;;;32.75;18.65;;;7.60;99.90;;;;;;5048337;28;20086;-89
2021/11/12 01:32:33;;;;;;;32.78;19.05;;;7.60;99.90;;;;;;5064918;28;20029;-89
2021/11/12 01:35:00;;;;;;;30.00;18.42;;;7.60;99.90;;;;;;5065750;28;20044;-89
2021/11/12 01:37:28;;;;;;;31.10;19.63;;;7.60;99.90;;;;;;5048143;28;20069;-89
2021/11/12 01:39:58;;;;;;;31.63;18.27;;;7.60;99.90;;;;;;5048058;28;20029;-89
2021/11/12 01:42:26;;;;;;;;;;;7.60;99.90;;;;;;5048312;28;20033;-90
2021/11/12 01:44:59;;;;;;;25.45;14.30;;;7.50;99.90;;;;;;5068256;28;19992;-89
2021/11/12 01:47:38;;;;;;;30.35;17.05;;;7.50;99.90;;;;;;5067704;23;20052;-89
2021/11/12 01:50:11;;;;;;;28.10;17.17;;;7.50;99.90;;;;;;5072612;28;20054;-89
2021/11/12 01:52:42;;;;;;;29.67;16.63;;;7.40;99.90;;;;;;5089276;28;20029;-88
2021/11/12 01:55:37;;;;;;;28.05;17.08;;;7.40;99.90;;;;;;5072484;28;20032;-89
2021/11/12 02:00:30;;;;;;;28.95;16.70;;;7.30;99.90;;;;;;5088899;28;20373;-88
2021/11/12 02:02:59;;;;;;;29.83;17.55;;;7.30;99.90;;;;;;5106179;28;20025;-88
2021/11/12 02:05:25;;;;;;;30.23;17.77;;;7.30;99.90;;;;;;5077798;28;20456;-88
2021/11/12 02:07:54;;;;;;;28.55;17.02;;;7.20;99.90;;;;;;5072093;28;20033;-88
2021/11/12 02:10:26;;;;;;;29.70;17.30;;;7.20;99.90;;;;;;5072030;28;20050;-88
2021/11/12 02:15:21;;;;;;;29.95;17.15;;;7.10;99.90;;;;;;5089055;28;20045;-88
2021/11/12 02:17:55;;;;;;;32.15;18.48;;;7.10;99.90;;;;;;5072191;28;20092;-88
2021/11/12 02:20:44;;;;;;;29.30;17.40;;;7.10;99.90;;;;;;5071714;28;20095;-88
2021/11/12 02:23:07;;;;;;;33.80;17.50;;;7.00;99.90;;;;;;5087816;28;20040;-88
2021/11/12 02:25:38;;;;;;;31.15;17.17;;;7.00;99.90;;;;;;5071631;28;20042;-88
2021/11/12 02:28:09;;;;;;;33.47;18.42;;;7.00;99.90;;;;;;5071763;28;20063;-88
2021/11/12 02:30:36;;;;;;;28.83;16.67;;;7.00;99.90;;;;;;5071662;28;20033;-88
2021/11/12 02:33:11;;;;;;;35.30;18.25;;;7.00;99.90;;;;;;5071494;28;20024;-88
2021/11/12 02:36:00;;;;;;;33.63;19.40;;;7.00;99.90;;;;;;5071366;28;20036;-88
2021/11/12 02:38:26;;;;;;;32.00;17.23;;;7.00;99.90;;;;;;5061179;28;20499;-87
2021/11/12 02:40:52;;;;;;;32.60;17.55;;;7.00;99.90;;;;;;5071218;28;20033;-88
2021/11/12 02:43:18;;;;;;;31.98;16.58;;;7.00;99.90;;;;;;5073254;28;20059;-89
2021/11/12 02:46:06;;;;;;;31.92;18.15;;;7.00;99.90;;;;;;5108201;28;20131;-88
2021/11/12 02:48:35;;;;;;;34.30;17.80;;;7.00;99.90;;;;;;5030069;28;20045;-90
2021/11/12 02:51:02;;;;;;;34.67;18.20;;;7.00;99.90;;;;;;5013453;28;20046;-90
2021/11/12 02:53:28;;;;;;;41.47;18.95;;;6.90;99.90;;;;;;5013613;28;20128;-89
2021/11/12 02:55:58;;;;;;;38.22;18.33;;;7.00;99.90;;;;;;5012366;28;20072;-89
2021/11/12 02:58:24;;;;;;;37.17;18.73;;;6.90;99.90;;;;;;5030206;28;20243;-89
2021/11/12 03:00:50;;;;;;;35.13;19.02;;;6.90;99.90;;;;;;5030015;28;20228;-89
2021/11/12 03:03:15;;;;;;;34.75;19.42;;;6.80;99.90;;;;;;5013924;28;20025;-90
2021/11/12 03:05:41;;;;;;;34.85;18.08;;;6.90;99.90;;;;;;5013399;28;20041;-89
2021/11/12 03:08:07;;;;;;;35.75;20.10;;;6.90;99.90;;;;;;5013098;28;20057;-89
2021/11/12 03:10:33;;;;;;;36.67;20.40;;;6.80;99.90;;;;;;5013272;28;20044;-88
2021/11/12 03:12:58;;;;;;;37.78;19.95;;;6.90;99.90;;;;;;5013253;28;20037;-90
2021/11/12 03:15:24;;;;;;;40.30;19.55;;;6.80;99.90;;;;;;5012757;28;20156;-89
2021/11/12 03:17:55;;;;;;;33.78;19.15;;;6.80;99.90;;;;;;5013398;28;20021;-89
2021/11/12 03:20:22;;;;;;;38.05;20.17;;;6.80;99.90;;;;;;5013135;28;20041;-89
2021/11/12 03:22:55;;;;;;;35.33;18.95;;;6.70;99.90;;;;;;5012900;28;20130;-89
2021/11/12 03:25:34;;;;;;;32.08;19.08;;;6.80;99.90;;;;;;5026852;28;20040;-89
2021/11/12 03:28:21;;;;;;;36.47;21.00;;;6.70;99.90;;;;;;5050514;28;20048;-89
2021/11/12 03:31:27;;;;;;;34.60;18.20;;;6.70;99.90;;;;;;5067145;28;20033;-89
2021/11/12 04:49:49;;;;;;;26.90;14.68;;;5.20;99.90;;;;;;5065362;28;20033;-91
2021/11/12 05:44:10;;;;;;;21.42;12.20;;;4.50;99.90;;;;;;5104885;28;20024;-89
2021/11/12 05:57:29;;;;;;;20.02;12.27;;;4.30;99.90;;;;;;5101511;28;20048;-95
2021/11/12 05:59:55;;;;;;;23.70;13.02;;;4.30;99.90;;;;;;5092049;28;20035;-96
2021/11/12 06:02:22;;;;;;;21.77;12.38;;;4.30;99.90;;;;;;5089338;28;20020;-94
2021/11/12 06:04:48;;;;;;;20.45;11.88;;;4.30;99.90;;;;;;5084152;28;20028;-96
2021/11/12 06:07:14;;;;;;;17.88;11.25;;;4.30;99.90;;;;;;5075136;28;20032;-96
2021/11/12 06:09:40;;;;;;;18.85;11.05;;;4.20;99.90;;;;;;5090398;28;20032;-96
2021/11/12 06:12:12;;;;;;;16.40;9.95;;;4.20;99.90;;;;;;5055177;28;20039;-96
2021/11/12 06:14:39;;;;;;;18.40;10.85;;;4.20;99.90;;;;;;5056191;28;20020;-95
2021/11/12 06:17:06;;;;;;;20.10;11.30;;;4.10;99.90;;;;;;5051054;28;20473;-96
2021/11/12 06:19:31;;;;;;;22.35;12.50;;;4.10;99.90;;;;;;5033031;28;20033;-96
2021/11/12 06:21:57;;;;;;;24.23;13.48;;;4.10;99.90;;;;;;5045151;28;20036;-96
2021/11/12 06:24:24;;;;;;;22.08;12.90;;;4.10;99.90;;;;;;5049302;28;20037;-96
2021/11/12 06:27:10;;;;;;;22.35;10.20;;;4.00;99.90;;;;;;5067299;28;20041;-96
2021/11/12 06:29:53;;;;;;;21.98;12.02;;;4.00;99.90;;;;;;5055219;28;20492;-96
2021/11/12 06:32:18;;;;;;;22.33;13.05;;;4.00;99.90;;;;;;5053213;28;20029;-96
2021/11/12 06:34:48;;;;;;;21.42;11.73;;;3.90;99.90;;;;;;5056930;28;20048;-96
2021/11/12 06:37:16;;;;;;;21.65;12.30;;;3.90;99.90;;;;;;5054908;28;20056;-96
2021/11/12 06:39:43;;;;;;;21.00;13.02;;;3.80;99.90;;;;;;5032857;28;20033;-94
2021/11/12 06:42:18;;;;;;;19.05;12.35;;;3.80;99.90;;;;;;5033639;28;20100;-96
2021/11/12 06:50:17;;;;;;;24.50;12.50;;;3.70;99.90;;;;;;5048744;28;20053;-96
2021/11/12 06:52:45;;;;;;;23.03;12.53;;;3.70;99.90;;;;;;5031490;28;20034;-95
2021/11/12 06:55:14;;;;;;;20.38;10.38;;;3.60;99.90;;;;;;5031291;28;20310;-94
2021/11/12 06:57:41;;;;;;;20.83;11.85;;;3.60;99.90;;;;;;5031634;28;20268;-96
2021/11/12 07:00:11;;;;;;;20.90;12.88;;;3.50;99.90;;;;;;5030883;28;20093;-96
2021/11/12 07:02:41;;;;;;;23.52;12.85;;;3.50;99.90;;;;;;5033574;28;20029;-95
2021/11/12 07:05:08;;;;;;;18.63;11.43;;;3.50;99.90;;;;;;5049980;28;20035;-96
2021/11/12 07:07:35;;;;;;;21.15;11.88;;;3.50;99.90;;;;;;5051042;28;20029;-96
2021/11/12 07:10:02;;;;;;;20.42;11.38;;;3.50;99.90;;;;;;5066798;28;20099;-95
2021/11/12 07:12:28;;;;;;;21.58;12.45;;;3.40;99.90;;;;;;5043057;28;20037;-96
2021/11/12 07:14:54;;;;;;;20.05;11.60;;;3.40;99.90;;;;;;5048831;28;20037;-95
2021/11/12 07:17:20;;;;;;;24.98;13.68;;;3.40;99.90;;;;;;5065264;28;20055;-94
2021/11/12 07:19:46;;;;;;;23.48;12.68;;;3.30;99.90;;;;;;5047336;28;20095;-96
2021/11/12 07:22:13;;;;;;;24.80;14.60;;;3.30;99.90;;;;;;5030303;28;20294;-96
2021/11/12 07:24:39;;;;;;;23.60;13.02;;;3.40;99.90;;;;;;5032303;28;20079;-96
2021/11/12 07:27:06;;;;;;;31.15;14.75;;;3.30;99.90;;;;;;5031448;28;20036;-95
2021/11/12 07:29:39;;;;;;;25.75;14.32;;;3.40;99.90;;;;;;5047003;28;20034;-96
2021/11/12 07:32:09;;;;;;;32.33;15.80;;;3.40;99.90;;;;;;5055402;28;20025;-96
2021/11/12 07:34:35;;;;;;;34.67;16.73;;;3.40;99.90;;;;;;5051111;28;20147;-95
2021/11/12 07:37:08;;;;;;;36.13;17.30;;;3.40;99.90;;;;;;5050907;28;20045;-96
2021/11/12 07:39:46;;;;;;;30.70;16.52;;;3.40;99.90;;;;;;5047549;28;20033;-93
2021/11/12 07:47:42;;;;;;;34.22;16.65;;;3.50;99.90;;;;;;5048818;28;20046;-96
2021/11/12 07:50:10;;;;;;;32.80;16.23;;;3.50;99.90;;;;;;5046884;28;20121;-96
2021/11/12 07:52:38;;;;;;;37.97;17.13;;;3.60;99.90;;;;;;5049316;28;20040;-96
2021/11/12 07:58:10;;;;;;;37.90;17.83;;;3.60;99.90;;;;;;4992432;28;20151;-96
2021/11/12 08:00:35;;;;;;;41.80;19.25;;;3.60;99.90;;;;;;4961920;28;20045;-94
2021/11/12 08:03:01;;;;;;;36.65;17.38;;;3.70;99.90;;;;;;5000281;28;20113;-92
2021/11/12 08:05:30;;;;;;;30.48;15.30;;;3.60;99.90;;;;;;4985226;28;20039;-90
2021/11/12 08:08:03;;;;;;;39.20;18.98;;;3.70;99.90;;;;;;4986195;28;20077;-96
2021/11/12 08:11:01;;;;;;;32.50;15.68;;;3.70;99.90;;;;;;4998953;28;20035;-96
2021/11/12 08:13:34;;;;;;;35.95;17.20;;;3.70;99.90;;;;;;4987428;28;20046;-96
2021/11/12 08:21:21;;;;;;;37.58;17.85;;;3.80;99.90;;;;;;4999476;28;20035;-96
2021/11/12 08:42:07;;;;;;;35.80;17.13;;;4.20;99.90;;;;;;4956606;28;20062;-95
2021/11/12 08:44:45;;;;;;;43.30;20.50;;;4.20;99.90;;;;;;5002644;28;20461;-96
2021/11/12 08:47:55;;;;;;;40.13;21.77;;;4.20;99.90;;;;;;4983116;28;20038;-93
2021/11/12 08:50:23;;;;;;;43.42;20.65;;;4.20;99.90;;;;;;4953955;28;20038;-93
2021/11/12 08:53:03;;;;;;;44.83;19.92;;;4.20;99.90;;;;;;5001079;28;20054;-96
2021/11/12 08:55:37;;;;;;;;;;;4.30;99.90;;;;;;5000311;28;20038;-96
2021/11/12 08:58:07;;;;;;;32.03;16.17;;;4.40;99.90;;;;;;5002511;28;19915;-96
2021/11/12 09:00:34;;;;;;;37.67;17.88;;;4.40;99.90;;;;;;5001832;28;20050;-95
2021/11/12 09:03:01;;;;;;;35.33;16.63;;;4.40;99.90;;;;;;4984923;28;20031;-94
2021/11/12 09:05:28;;;;;;;37.30;16.27;;;4.50;99.90;;;;;;4984480;28;20095;-96
2021/11/12 09:07:54;;;;;;;41.33;18.63;;;4.60;99.90;;;;;;4984757;28;20035;-96
2021/11/12 09:10:22;;;;;;;39.15;18.73;;;4.40;99.90;;;;;;4985338;28;20034;-93
2021/11/12 09:12:54;;;;;;;41.25;19.13;;;4.40;99.90;;;;;;5000206;28;20031;-95
2021/11/12 09:15:29;;;;;;;31.10;13.95;;;4.30;99.90;;;;;;4987840;28;20038;-95
2021/11/12 09:18:10;;;;;;;42.58;19.63;;;4.50;99.90;;;;;;5004991;28;20065;-96
2021/11/12 09:20:36;;;;;;;40.30;18.90;;;4.30;99.90;;;;;;4987992;28;20031;-96
2021/11/12 09:23:01;;;;;;;40.72;19.23;;;4.30;99.90;;;;;;4984349;28;20049;-93
2021/11/12 09:25:27;;;;;;;30.15;15.50;;;4.30;99.90;;;;;;4984815;28;20038;-96
2021/11/12 09:27:53;;;;;;;37.03;16.77;;;4.40;99.90;;;;;;4988023;28;20066;-93
2021/11/12 09:30:24;;;;;;;36.38;16.90;;;4.50;99.90;;;;;;4997906;28;20031;-95
2021/11/12 09:32:54;;;;;;;35.40;17.90;;;4.40;99.90;;;;;;4999829;28;20034;-96
2021/11/12 09:35:20;;;;;;;35.00;16.63;;;4.40;99.90;;;;;;4991306;28;20070;-93
2021/11/12 09:37:51;;;;;;;38.55;18.92;;;4.40;99.90;;;;;;4997334;28;20027;-96
2021/11/12 09:40:18;;;;;;;37.92;18.95;;;4.50;99.90;;;;;;4985072;28;20082;-96
2021/11/12 09:42:44;;;;;;;36.65;18.27;;;4.60;99.90;;;;;;4966607;28;20051;-94
2021/11/12 09:45:11;;;;;;;38.78;19.63;;;4.70;99.90;;;;;;5001435;28;20031;-94
2021/11/12 09:47:38;;;;;;;39.40;19.48;;;4.70;99.90;;;;;;4991298;28;20066;-94
2021/11/12 09:50:08;;;;;;;45.08;21.58;;;4.60;99.90;;;;;;4999939;28;20080;-92
2021/11/12 09:52:35;;;;;;;43.53;20.67;;;4.60;99.90;;;;;;4987292;28;20038;-92
2021/11/12 09:55:00;;;;;;;47.65;22.45;;;4.70;99.90;;;;;;4984774;28;20027;-95
2021/11/12 09:57:27;;;;;;;47.15;22.08;;;4.70;99.90;;;;;;5001822;28;20128;-93
2021/11/12 09:59:59;;;;;;;44.38;21.73;;;4.80;99.90;;;;;;4999099;28;20078;-95
2021/11/12 10:02:29;;;;;;;51.35;23.08;;;4.80;99.90;;;;;;4994249;28;20045;-93
2021/11/12 10:04:54;;;;;;;41.42;18.65;;;4.80;99.90;;;;;;4974684;28;20033;-96
2021/11/12 10:07:21;;;;;;;40.70;19.33;;;4.90;99.90;;;;;;4989285;28;20133;-95
2021/11/12 10:10:03;;;;;;;41.65;20.70;;;5.00;99.90;;;;;;5005653;28;20030;-96
2021/11/12 10:12:44;;;;;;;40.00;20.05;;;5.10;99.90;;;;;;5003715;28;20039;-96
2021/11/12 10:15:23;;;;;;;39.00;18.45;;;5.30;99.90;;;;;;5005074;28;20046;-91
2021/11/12 10:17:51;;;;;;;35.17;19.98;;;5.40;99.90;;;;;;4989368;28;20070;-94
2021/11/12 10:20:23;;;;;;;38.92;20.42;;;5.30;99.90;;;;;;5004984;28;20039;-96
2021/11/12 10:22:51;;;;;;;47.65;22.25;;;5.50;99.90;;;;;;5005418;28;20034;-96
2021/11/12 10:25:18;;;;;;;38.67;19.95;;;5.50;99.90;;;;;;4989105;28;20137;-91
2021/11/12 10:27:51;;;;;;;39.15;21.08;;;5.50;99.90;;;;;;5005124;28;20035;-89
2021/11/12 10:30:28;;;;;;;41.88;20.15;;;5.50;99.90;;;;;;4988603;28;20494;-95
2021/11/12 10:32:56;;;;;;;42.03;20.58;;;5.60;99.90;;;;;;4989995;28;20035;-92
2021/11/12 10:35:27;;;;;;;34.65;19.20;;;5.80;99.90;;;;;;4988614;28;20039;-93
2021/11/12 10:37:56;;;;;;;35.65;18.70;;;5.80;99.90;;;;;;4989731;28;20035;-91
2021/11/12 10:40:27;;;;;;;38.10;19.17;;;5.80;99.90;;;;;;4989423;28;20058;-93
2021/11/12 10:42:54;;;;;;;42.85;21.15;;;5.60;99.90;;;;;;5005411;28;20031;-94
2021/11/12 10:45:28;;;;;;;39.03;19.40;;;5.80;99.90;;;;;;4987961;28;20042;-93
2021/11/12 10:48:00;;;;;;;38.15;18.63;;;5.90;99.90;;;;;;4999092;28;20061;-92
2021/11/12 10:50:29;;;;;;;35.58;18.65;;;6.00;99.90;;;;;;5003268;28;20030;-90
2021/11/12 10:53:13;;;;;;;35.50;18.17;;;6.00;99.90;;;;;;4987786;28;20097;-92
2021/11/12 10:55:40;;;;;;;39.38;19.73;;;6.10;99.90;;;;;;4987571;28;20051;-94
2021/11/12 10:58:09;;;;;;;39.00;19.75;;;6.10;99.90;;;;;;4988569;28;20027;-88
2021/11/12 11:00:44;;;;;;;39.25;20.95;;;6.20;99.90;;;;;;5003947;28;20491;-91
2021/11/12 11:03:13;;;;;;;37.83;20.50;;;6.40;99.90;;;;;;5003980;28;20090;-93
2021/11/12 11:05:38;;;;;;;50.22;25.42;;;6.40;99.90;;;;;;5001019;28;20034;-88
2021/11/12 11:08:14;;;;;;;43.38;24.35;;;6.40;99.90;;;;;;5000906;28;20035;-92
2021/11/12 11:10:47;;;;;;;47.10;24.08;;;6.50;99.90;;;;;;5000722;28;20028;-91
2021/11/12 11:13:18;;;;;;;46.58;24.60;;;6.60;99.90;;;;;;4990666;28;20045;-93
2021/11/12 11:15:51;;;;;;;49.45;24.55;;;6.40;99.90;;;;;;4999199;28;20177;-92
2021/11/12 11:18:28;;;;;;;43.33;22.95;;;6.50;99.90;;;;;;5000603;28;20039;-91
2021/11/12 11:21:02;;;;;;;46.22;24.55;;;6.70;99.90;;;;;;4984358;28;20111;-91
2021/11/12 11:23:29;;;;;;;45.75;23.60;;;6.60;99.90;;;;;;5000793;28;20062;-95
2021/11/12 11:26:00;;;;;;;45.30;22.80;;;6.70;99.90;;;;;;5000595;28;20054;-94
2021/11/12 11:28:27;;;;;;;49.42;24.30;;;6.80;99.90;;;;;;5000781;28;20031;-92
2021/11/12 11:30:53;;;;;;;46.03;24.55;;;6.90;99.90;;;;;;5001962;28;20027;-93
2021/11/12 11:33:19;;;;;;;42.45;23.17;;;6.90;99.90;;;;;;5001284;28;20027;-91
2021/11/12 11:35:46;;;;;;;48.05;24.40;;;6.90;99.90;;;;;;5000745;28;20070;-93
2021/11/12 11:38:16;;;;;;;45.42;22.65;;;6.80;99.90;;;;;;5000475;28;20110;-93
2021/11/12 11:40:44;;;;;;;;;;;6.80;99.90;;;;;;4984562;28;20031;-91
2021/11/12 11:43:10;;;;;;;42.72;21.98;;;6.90;99.90;;;;;;5004066;28;19910;-92
2021/11/12 11:45:37;;;;;;;45.22;23.08;;;6.90;99.90;;;;;;4988224;28;20035;-96
2021/11/12 11:48:04;;;;;;;46.70;24.95;;;7.10;99.90;;;;;;4987705;28;20041;-92
2021/11/12 11:50:32;;;;;;;44.92;23.15;;;7.10;99.90;;;;;;4986889;28;20102;-93
2021/11/12 11:53:36;;;;;;;42.15;23.50;;;7.20;99.90;;;;;;4987361;28;20042;-95
2021/11/12 11:56:27;;;;;;;43.95;23.45;;;7.40;99.90;;;;;;4986445;28;20070;-96
2021/11/12 11:58:56;;;;;;;43.70;23.70;;;7.40;99.90;;;;;;5004871;28;20484;-94
2021/11/12 12:01:44;;;;;;;43.38;23.92;;;7.40;99.90;;;;;;5002176;28;20077;-94
2021/11/12 12:04:19;;;;;;;44.05;24.73;;;7.40;99.90;;;;;;5005365;28;20396;-94
2021/11/12 12:07:03;;;;;;;43.55;23.75;;;7.60;99.90;;;;;;4995112;28;20122;-94
2021/11/12 12:09:52;;;;;;;45.10;24.40;;;7.60;99.90;;;;;;4982917;28;20027;-95
2021/11/12 12:12:35;;;;;;;47.35;24.90;;;7.40;99.90;;;;;;4985656;28;20106;-94
2021/11/12 12:15:04;;;;;;;40.03;23.00;;;7.50;99.90;;;;;;5000315;28;20038;-95
2021/11/12 12:17:45;;;;;;;43.08;23.23;;;7.50;99.90;;;;;;4999973;28;20032;-94
2021/11/12 12:20:30;;;;;;;43.90;24.98;;;7.60;99.90;;;;;;4999801;28;20023;-90
2021/11/12 13:18:29;;;;;;;40.00;20.80;;;7.80;99.90;;;;;;4984099;28;20122;-93
2021/11/12 13:26:05;;;;;;;50.50;27.58;;;7.20;99.90;;;;;;5001885;28;20026;-92
2021/11/12 13:28:41;;;;;;;51.80;28.23;;;7.30;99.90;;;;;;4986945;28;20078;-94
2021/11/12 13:31:12;;;;;;;48.55;28.08;;;7.20;99.90;;;;;;4987739;28;20038;-95
2021/11/12 13:33:43;;;;;;;51.25;28.42;;;7.20;99.90;;;;;;5002373;28;20085;-95
2021/11/12 13:36:24;;;;;;;48.95;26.58;;;7.30;99.90;;;;;;5002758;28;20395;-93
2021/11/12 13:39:02;;;;;;;49.83;28.77;;;7.20;99.90;;;;;;4985039;28;20022;-94
2021/11/12 13:41:35;;;;;;;42.58;24.83;;;7.30;99.90;;;;;;4985577;28;20050;-94
2021/11/12 13:44:03;;;;;;;46.47;28.00;;;7.30;99.90;;;;;;4985392;28;20050;-94
2021/11/12 13:46:53;;;;;;;44.72;26.60;;;7.20;99.90;;;;;;5002316;28;20041;-94
2021/11/12 13:49:33;;;;;;;43.08;24.90;;;7.40;99.90;;;;;;4985438;28;20037;-93
2021/11/12 13:52:07;;;;;;;46.88;25.15;;;7.40;99.90;;;;;;5001921;28;20098;-94
2021/11/12 13:54:41;;;;;;;45.88;26.25;;;7.30;99.90;;;;;;5001977;28;20068;-94
2021/11/12 13:57:13;;;;;;;40.53;23.90;;;7.20;99.90;;;;;;5001273;28;20051;-94
2021/11/12 13:59:59;;;;;;;47.72;27.08;;;7.20;99.90;;;;;;4985865;28;20057;-93
2021/11/12 14:02:30;;;;;;;41.45;25.63;;;7.20;99.90;;;;;;4986558;28;20045;-94
2021/11/12 14:05:12;;;;;;;43.35;24.45;;;7.20;99.90;;;;;;4984976;28;20027;-94
2021/11/12 14:07:39;;;;;;;40.25;24.05;;;7.20;99.90;;;;;;4985266;28;20031;-94
2021/11/12 14:10:14;;;;;;;38.90;23.85;;;7.20;99.90;;;;;;4983193;28;20448;-95
2021/11/12 14:12:58;;;;;;;38.78;21.95;;;7.10;99.90;;;;;;4981980;28;20023;-94
2021/11/12 14:15:30;;;;;;;39.28;23.77;;;7.10;99.90;;;;;;4985195;28;20038;-94
2021/11/12 14:18:13;;;;;;;39.00;22.63;;;7.10;99.90;;;;;;5002942;28;20039;-95
2021/11/12 14:20:43;;;;;;;39.17;24.17;;;7.00;99.90;;;;;;5001279;28;20030;-92
2021/11/12 14:23:27;;;;;;;34.75;21.88;;;7.00;99.90;;;;;;5002425;28;20034;-95
2021/11/12 14:26:16;;;;;;;39.33;21.70;;;7.00;99.90;;;;;;5001461;28;20039;-94
2021/11/12 14:28:50;;;;;;;38.20;20.23;;;7.00;99.90;;;;;;5001274;28;20162;-93
2021/11/12 14:34:53;;;;;;;;;;;7.10;99.90;;;;;;4999897;28;20043;-96
2021/11/12 14:37:39;;;;;;;32.20;16.95;;;7.00;99.90;;;;;;5002293;28;19922;-94
2021/11/12 14:40:11;;;;;;;34.83;20.23;;;7.00;99.90;;;;;;4984720;28;20038;-94
2021/11/12 14:46:19;;;;;;;30.38;19.10;;;6.90;99.90;;;;;;5000946;28;20058;-91
2021/11/12 14:51:02;;;;;;;34.88;20.25;;;6.90;99.90;;;;;;5001222;28;20041;-93
2021/11/12 14:53:51;;;;;;;33.60;20.33;;;6.90;99.90;;;;;;4988006;28;20131;-93
2021/11/12 14:58:54;;;;;;;30.33;17.02;;;6.90;99.90;;;;;;4987772;28;20031;-92
2021/11/12 15:01:22;;;;;;;31.40;18.13;;;6.90;99.90;;;;;;4987964;28;20045;-93
2021/11/12 15:03:50;;;;;;;29.17;19.05;;;6.80;99.90;;;;;;5004242;28;20121;-92
2021/11/12 15:06:21;;;;;;;30.20;17.73;;;6.80;99.90;;;;;;4987997;28;20061;-93
2021/11/12 15:08:50;;;;;;;31.48;19.30;;;6.80;99.90;;;;;;5003876;28;20031;-93
2021/11/12 15:11:18;;;;;;;30.10;18.40;;;6.80;99.90;;;;;;5004404;28;20031;-94
2021/11/12 15:13:46;;;;;;;32.13;18.50;;;6.80;99.90;;;;;;5005011;28;20118;-94
2021/11/12 15:16:17;;;;;;;32.22;18.98;;;6.70;99.90;;;;;;4989076;28;20055;-94
2021/11/12 15:18:44;;;;;;;34.17;19.25;;;6.70;99.90;;;;;;4988411;28;20026;-94
2021/11/12 15:21:17;;;;;;;34.17;21.25;;;6.70;99.90;;;;;;5003881;28;20038;-96
2021/11/12 15:29:14;;;;;;;31.02;18.90;;;6.70;99.90;;;;;;4987832;28;20066;-94
2021/11/12 15:34:14;;;;;;;32.30;20.02;;;6.60;99.90;;;;;;5004831;28;20088;-94
2021/11/12 15:36:57;;;;;;;27.13;17.98;;;6.60;99.90;;;;;;5004671;28;20045;-94
2021/11/12 15:42:23;;;;;;;30.35;18.33;;;6.60;99.90;;;;;;5004805;28;20049;-94
2021/11/12 15:44:55;;;;;;;29.52;18.13;;;6.60;99.90;;;;;;4989552;28;20037;-95
2021/11/12 15:49:46;;;;;;;36.90;20.20;;;6.50;99.90;;;;;;5006708;28;20038;-94
2021/11/12 16:00:15;;;;;;;27.38;17.15;;;6.60;99.90;;;;;;5050779;28;20029;-95
2021/11/12 16:05:49;;;;;;;28.42;16.88;;;6.60;99.90;;;;;;5046706;28;20034;-94
2021/11/12 16:08:27;;;;;;;26.55;16.40;;;6.60;99.90;;;;;;5030681;28;20031;-91
2021/11/12 16:13:47;;;;;;;27.98;16.95;;;6.60;99.90;;;;;;5048704;28;20075;-96
2021/11/12 16:22:08;;;;;;;22.75;14.25;;;6.70;99.90;;;;;;5048850;28;20041;-95
2021/11/12 16:24:47;;;;;;;24.88;15.18;;;6.70;99.90;;;;;;5033437;28;20037;-94
2021/11/12 16:27:14;;;;;;;27.50;16.33;;;6.70;99.90;;;;;;5033516;28;20041;-94
2021/11/12 16:32:36;;;;;;;26.88;15.13;;;6.70;99.90;;;;;;5034923;28;20033;-96
2021/11/12 16:35:32;;;;;;;22.70;14.05;;;6.70;99.90;;;;;;5049937;23;20082;-96
2021/11/12 16:38:06;;;;;;;23.77;15.23;;;6.70;99.90;;;;;;5052043;28;20040;-95
2021/11/12 16:40:38;;;;;;;21.23;14.15;;;6.70;99.90;;;;;;5068798;28;20035;-94
2021/11/12 17:02:31;;;;;;;19.90;11.10;;;6.70;99.90;;;;;;5065557;28;20124;-96
2021/11/12 17:05:35;;;;;;;19.98;12.07;;;6.70;99.90;;;;;;5054438;28;20047;-96
2021/11/12 17:08:35;;;;;;;21.30;12.52;;;6.70;99.90;;;;;;5051311;28;20029;-95
2021/11/12 17:11:08;;;;;;;21.60;12.93;;;6.70;99.90;;;;;;5041309;28;20048;-92
2021/11/12 17:14:10;;;;;;;20.65;12.35;;;6.70;99.90;;;;;;5051415;28;20056;-96
2021/11/12 17:16:46;;;;;;;18.73;11.90;;;6.70;99.90;;;;;;5024899;28;20045;-96
2021/11/12 17:46:35;;;;;;;15.10;9.80;;;6.80;99.90;;;;;;5028729;28;20056;-96
2021/11/12 18:03:02;;;;;;;18.08;11.15;;;6.80;99.90;;;;;;5069105;28;20096;-96
2021/11/12 18:05:43;;;;;;;18.10;10.55;;;6.80;99.90;;;;;;5065249;28;20120;-96
2021/11/12 18:25:15;;;;;;;17.42;11.07;;;6.70;99.90;;;;;;5064093;28;20052;-94
2021/11/12 21:50:41;;;;;;;13.45;7.63;;;8.00;99.90;;;;;;5010588;28;20103;-96
2021/11/12 21:53:10;;;;;;;10.77;7.22;;;8.00;99.90;;;;;;4974372;28;20014;-96
2021/11/12 21:56:08;;;;;;;;;;;;;;;;;;;;;
2021/11/12 21:58:53;;;;;;;11.07;6.82;;;8.10;99.90;;;;;;4962932;28;20039;-96
2021/11/12 22:01:25;;;;;;;13.25;8.07;;;8.10;99.90;;;;;;4978379;28;20077;-95
2021/11/12 22:03:53;;;;;;;13.55;8.15;;;8.10;99.90;;;;;;4970182;28;20030;-96
2021/11/12 22:06:20;;;;;;;13.25;8.25;;;8.00;99.90;;;;;;4973176;28;20034;-96
2021/11/12 22:08:58;;;;;;;14.07;8.82;;;8.10;99.90;;;;;;4964311;28;20050;-96
2021/11/12 22:14:06;;;;;;;14.32;8.50;;;8.10;99.90;;;;;;5134394;23;20045;-95
2021/11/12 22:16:34;;;;;;;17.92;10.18;;;8.10;99.90;;;;;;5039907;28;20087;-96
2021/11/12 22:19:03;;;;;;;13.77;8.60;;;8.20;99.90;;;;;;5043113;28;20013;-96
2021/11/12 22:21:29;;;;;;;16.83;8.98;;;8.10;99.90;;;;;;5037908;23;20054;-94
2021/11/12 22:23:55;;;;;;;16.13;8.65;;;8.20;99.90;;;;;;5054428;28;20026;-96
2021/11/12 22:26:46;;;;;;;17.17;9.23;;;8.20;99.90;;;;;;5270407;23;20088;-96
2021/11/12 22:29:13;;;;;;;17.38;10.07;;;8.20;99.90;;;;;;5122528;23;20068;-96
2021/11/12 22:50:29;;;;;;;16.13;9.82;;;8.30;99.90;;;;;;5170865;23;20057;-96
2021/11/12 22:52:56;;;;;;;17.27;9.10;;;8.30;99.90;;;;;;5054844;28;20036;-96
2021/11/12 22:55:22;;;;;;;17.17;9.70;;;8.30;99.90;;;;;;5036549;23;20046;-95
2021/11/12 22:57:49;;;;;;;20.58;10.88;;;8.40;99.90;;;;;;5016966;28;20406;-93
2021/11/12 23:00:49;;;;;;;19.52;10.00;;;8.40;99.90;;;;;;5019788;28;20038;-95
2021/11/12 23:03:15;;;;;;;18.63;9.82;;;8.40;99.90;;;;;;5019059;28;20042;-96
2021/11/12 23:05:45;;;;;;;15.82;9.32;;;8.40;99.90;;;;;;5018558;28;20033;-96
2021/11/12 23:08:14;;;;;;;17.00;9.65;;;8.40;99.90;;;;;;4999395;28;20030;-96
2021/11/12 23:10:40;;;;;;;18.52;10.65;;;8.40;99.90;;;;;;5002189;28;20036;-95
2021/11/12 23:13:06;;;;;;;16.92;10.80;;;8.40;99.90;;;;;;5010994;28;20057;-95
2021/11/12 23:15:32;;;;;;;17.83;10.60;;;8.50;99.90;;;;;;5012663;28;20030;-94
2021/11/12 23:17:57;;;;;;;18.85;9.75;;;8.50;99.90;;;;;;5015346;28;20049;-95